createdAt,value
2022-12-03T00:00:33.562Z,50.38
2022-12-03T00:03:00.343Z,50.57
2022-12-03T00:05:27.049Z,50.50
2022-12-03T00:07:53.657Z,51.03
2022-12-03T00:10:20.348Z,50.30
2022-12-03T00:12:47.028Z,50.37
2022-12-03T00:15:13.609Z,50.40
2022-12-03T00:17:40.209Z,50.28
2022-12-03T00:20:08.751Z,50.30
2022-12-03T00:22:35.333Z,50.63
2022-12-03T00:25:01.860Z,50.54
2022-12-03T00:27:28.377Z,50.53
2022-12-03T00:29:54.879Z,50.17
2022-12-03T00:32:21.372Z,50.63
2022-12-03T00:34:47.884Z,50.64
2022-12-03T00:37:14.533Z,50.20
2022-12-03T00:39:41.056Z,50.40
2022-12-03T00:42:07.567Z,50.50
2022-12-03T00:44:34.068Z,50.43
2022-12-03T00:47:00.711Z,51.00
2022-12-03T00:49:27.328Z,50.53
2022-12-03T00:51:53.881Z,51.32
2022-12-03T00:54:20.409Z,51.36
2022-12-03T00:56:46.897Z,51.28
2022-12-03T00:59:13.585Z,51.27
2022-12-03T01:01:40.333Z,50.73
2022-12-03T01:04:06.946Z,50.90
2022-12-03T01:06:33.452Z,50.91
2022-12-03T01:09:00.138Z,51.13
2022-12-03T01:11:38.751Z,50.72
2022-12-03T01:14:17.304Z,51.40
2022-12-03T01:16:44.535Z,50.51
2022-12-03T01:19:15.668Z,50.48
2022-12-03T01:21:50.231Z,50.69
2022-12-03T01:24:17.889Z,51.31
2022-12-03T01:26:44.533Z,50.97
2022-12-03T01:29:11.028Z,50.41
2022-12-03T01:31:56.214Z,50.72
2022-12-03T01:34:22.777Z,50.34
2022-12-03T01:36:49.378Z,50.54
2022-12-03T01:39:15.948Z,50.54
2022-12-03T01:41:42.535Z,50.39
2022-12-03T01:44:18.173Z,50.72
2022-12-03T01:46:46.176Z,50.42
2022-12-03T01:49:20.454Z,51.23
2022-12-03T01:51:48.836Z,50.64
2022-12-03T01:54:20.975Z,50.64
2022-12-03T01:56:48.303Z,50.40
2022-12-03T01:59:20.596Z,50.59
2022-12-03T02:01:47.300Z,51.14
2022-12-03T02:04:16.323Z,50.97
2022-12-03T02:06:44.042Z,50.36
2022-12-03T02:09:12.440Z,50.31
2022-12-03T02:11:43.530Z,50.43
2022-12-03T02:14:17.325Z,50.94
2022-12-03T02:16:44.316Z,50.78
2022-12-03T02:19:24.167Z,50.85
2022-12-03T02:22:04.728Z,50.53
2022-12-03T02:24:39.669Z,51.22
2022-12-03T02:27:06.480Z,51.04
2022-12-03T02:29:33.044Z,51.68
2022-12-03T02:32:00.163Z,50.75
2022-12-03T02:34:41.898Z,50.79
2022-12-03T02:37:13.036Z,50.75
2022-12-03T02:39:42.588Z,50.79
2022-12-03T02:42:28.666Z,50.45
2022-12-03T02:44:59.468Z,51.34
2022-12-03T02:47:31.980Z,51.32
2022-12-03T02:49:59.044Z,50.53
2022-12-03T02:52:26.061Z,50.61
2022-12-03T02:54:53.377Z,50.54
2022-12-03T02:57:20.496Z,50.48
2022-12-03T02:59:47.317Z,51.01
2022-12-03T03:02:14.791Z,51.08
2022-12-03T03:04:42.174Z,50.88
2022-12-03T03:07:09.624Z,50.97
2022-12-03T03:09:36.289Z,51.03
2022-12-03T03:12:02.855Z,50.47
2022-12-03T03:14:29.396Z,50.53
2022-12-03T03:16:56.181Z,50.58
2022-12-03T03:19:25.460Z,50.32
2022-12-03T03:21:53.240Z,50.49
2022-12-03T03:24:21.327Z,50.55
2022-12-03T03:26:48.607Z,50.66
2022-12-03T03:29:15.354Z,50.46
2022-12-03T03:31:43.983Z,50.72
2022-12-03T03:34:11.092Z,50.72
2022-12-03T03:36:37.928Z,51.17
2022-12-03T03:39:05.924Z,51.28
2022-12-03T03:41:33.527Z,50.95
2022-12-03T03:44:00.533Z,50.89
2022-12-03T03:46:28.460Z,51.06
2022-12-03T03:48:55.007Z,50.56
2022-12-03T03:51:21.909Z,51.15
2022-12-03T03:53:49.619Z,51.33
2022-12-03T03:56:17.696Z,51.56
2022-12-03T03:58:44.229Z,50.94
2022-12-03T04:01:12.753Z,50.65
2022-12-03T04:03:40.213Z,50.85
2022-12-03T04:06:07.134Z,50.84
2022-12-03T04:08:33.636Z,51.17
2022-12-03T04:11:18.811Z,51.26
2022-12-03T04:13:45.404Z,51.63
2022-12-03T04:16:11.942Z,51.41
2022-12-03T04:18:44.551Z,51.33
2022-12-03T04:21:38.304Z,51.77
2022-12-03T04:24:06.373Z,51.18
2022-12-03T04:26:51.535Z,51.19
2022-12-03T04:29:18.959Z,51.34
2022-12-03T04:32:04.361Z,51.21
2022-12-03T04:34:49.479Z,50.96
2022-12-03T04:37:16.027Z,50.89
2022-12-03T04:39:42.695Z,51.31
2022-12-03T04:42:09.217Z,51.24
2022-12-03T04:44:36.372Z,51.28
2022-12-03T04:47:04.283Z,51.71
2022-12-03T04:49:31.524Z,51.25
2022-12-03T04:51:58.019Z,51.48
2022-12-03T04:54:24.524Z,51.34
2022-12-03T04:56:51.055Z,51.55
2022-12-03T04:59:17.606Z,51.60
2022-12-03T05:01:44.787Z,51.32
2022-12-03T05:04:12.767Z,51.05
2022-12-03T05:06:40.091Z,51.09
2022-12-03T05:09:06.655Z,50.96
2022-12-03T05:11:33.203Z,51.22
2022-12-03T05:13:59.723Z,51.01
2022-12-03T05:16:28.602Z,50.99
2022-12-03T05:18:55.166Z,51.30
2022-12-03T05:21:21.721Z,50.96
2022-12-03T05:23:48.301Z,50.98
2022-12-03T05:26:14.823Z,51.10
2022-12-03T05:28:41.345Z,51.11
2022-12-03T05:31:08.147Z,51.46
2022-12-03T05:33:37.317Z,51.84
2022-12-03T05:36:07.664Z,51.52
2022-12-03T05:38:34.247Z,51.44
2022-12-03T05:41:00.803Z,51.23
2022-12-03T05:43:27.524Z,51.35
2022-12-03T05:45:54.095Z,51.65
2022-12-03T05:48:20.673Z,51.35
2022-12-03T05:50:47.529Z,51.48
2022-12-03T05:53:15.288Z,51.99
2022-12-03T05:55:42.073Z,51.54
2022-12-03T05:58:09.251Z,51.47
2022-12-03T06:00:42.366Z,51.49
2022-12-03T06:03:10.237Z,51.41
2022-12-03T06:05:37.032Z,51.71
2022-12-03T06:08:03.845Z,51.48
2022-12-03T06:10:30.646Z,51.57
2022-12-03T06:12:57.197Z,51.64
2022-12-03T06:15:23.779Z,51.23
2022-12-03T06:17:50.651Z,51.38
2022-12-03T06:20:19.316Z,52.68
2022-12-03T06:22:46.376Z,52.18
2022-12-03T06:25:13.539Z,51.72
2022-12-03T06:27:40.085Z,51.45
2022-12-03T06:30:11.415Z,51.53
2022-12-03T06:32:38.045Z,52.04
2022-12-03T06:35:04.819Z,51.71
2022-12-03T06:37:31.322Z,51.63
2022-12-03T06:39:57.821Z,51.82
2022-12-03T06:42:24.384Z,51.58
2022-12-03T06:44:51.351Z,51.62
2022-12-03T06:47:18.088Z,51.72
2022-12-03T06:49:44.631Z,51.78
2022-12-03T06:52:11.176Z,51.73
2022-12-03T06:54:38.092Z,51.49
2022-12-03T06:57:04.676Z,51.62
2022-12-03T06:59:34.027Z,51.08
2022-12-03T07:02:00.976Z,51.21
2022-12-03T07:04:27.507Z,51.36
2022-12-03T07:06:54.032Z,51.22
2022-12-03T07:09:20.581Z,51.09
2022-12-03T07:11:47.126Z,51.26
2022-12-03T07:14:13.708Z,51.23
2022-12-03T07:16:43.082Z,50.88
2022-12-03T07:19:10.264Z,50.98
2022-12-03T07:21:36.869Z,51.20
2022-12-03T07:24:03.533Z,51.12
2022-12-03T07:26:30.153Z,50.85
2022-12-03T07:28:56.986Z,50.44
2022-12-03T07:31:23.588Z,50.93
2022-12-03T07:33:50.153Z,51.44
2022-12-03T07:36:16.689Z,51.04
2022-12-03T07:38:43.236Z,50.88
2022-12-03T07:41:09.813Z,51.51
2022-12-03T07:43:36.316Z,51.32
2022-12-03T07:46:02.822Z,51.05
2022-12-03T07:48:29.329Z,50.98
2022-12-03T07:50:55.892Z,50.94
2022-12-03T07:53:22.435Z,51.08
2022-12-03T07:55:48.953Z,51.23
2022-12-03T07:58:15.441Z,51.90
2022-12-03T08:00:42.029Z,51.42
2022-12-03T08:03:08.582Z,50.86
2022-12-03T08:05:35.183Z,50.85
2022-12-03T08:08:01.879Z,50.82
2022-12-03T08:10:28.478Z,50.70
2022-12-03T08:12:58.771Z,51.19
2022-12-03T08:15:31.058Z,51.10
2022-12-03T08:18:01.333Z,50.98
2022-12-03T08:20:33.276Z,51.20
2022-12-03T08:23:06.475Z,51.76
2022-12-03T08:25:33.814Z,51.71
2022-12-03T08:28:07.632Z,51.16
2022-12-03T08:30:34.043Z,50.92
2022-12-03T08:33:00.584Z,50.47
2022-12-03T08:35:30.833Z,50.92
2022-12-03T08:38:12.623Z,50.42
2022-12-03T08:40:42.170Z,50.32
2022-12-03T08:43:26.603Z,50.49
2022-12-03T08:45:55.072Z,50.59
2022-12-03T08:48:26.767Z,50.41
2022-12-03T08:51:17.986Z,50.32
2022-12-03T08:53:48.471Z,50.17
2022-12-03T08:56:25.755Z,50.26
2022-12-03T08:58:53.470Z,50.15
2022-12-03T09:01:38.800Z,50.04
2022-12-03T09:04:16.133Z,50.19
2022-12-03T09:06:42.775Z,49.72
2022-12-03T09:09:09.325Z,49.41
2022-12-03T09:11:35.907Z,49.62
2022-12-03T09:14:02.432Z,49.65
2022-12-03T09:16:28.976Z,49.75
2022-12-03T09:18:55.557Z,50.03
2022-12-03T09:21:22.088Z,49.64
2022-12-03T09:23:48.886Z,49.51
2022-12-03T09:26:15.429Z,49.55
2022-12-03T09:28:41.940Z,49.49
2022-12-03T09:31:08.475Z,49.37
2022-12-03T09:33:35.138Z,49.04
2022-12-03T09:36:01.660Z,49.26
2022-12-03T09:38:28.211Z,49.35
2022-12-03T09:40:54.758Z,49.40
2022-12-03T09:43:21.355Z,49.35
2022-12-03T09:45:49.523Z,49.20
2022-12-03T09:48:18.757Z,49.92
2022-12-03T09:50:46.681Z,49.22
2022-12-03T09:53:21.714Z,49.08
2022-12-03T09:55:49.224Z,49.05
2022-12-03T09:58:22.946Z,49.09
2022-12-03T10:00:52.181Z,48.99
2022-12-03T10:03:29.449Z,49.56
2022-12-03T10:05:56.818Z,49.13
2022-12-03T10:08:26.086Z,48.89
2022-12-03T10:10:56.634Z,48.69
2022-12-03T10:13:29.822Z,48.90
2022-12-03T10:15:58.706Z,49.25
2022-12-03T10:18:30.673Z,49.35
2022-12-03T10:20:57.745Z,49.29
2022-12-03T10:23:27.451Z,49.58
2022-12-03T10:26:00.179Z,49.56
2022-12-03T10:28:35.013Z,49.55
2022-12-03T10:31:04.196Z,49.49
2022-12-03T10:33:36.454Z,49.29
2022-12-03T10:36:21.618Z,49.57
2022-12-03T10:39:16.146Z,49.04
2022-12-03T10:41:43.373Z,49.07
2022-12-03T10:44:20.473Z,48.70
2022-12-03T10:47:05.977Z,49.43
2022-12-03T10:49:32.724Z,49.16
2022-12-03T10:51:59.385Z,49.49
2022-12-03T10:54:27.410Z,49.26
2022-12-03T10:56:54.000Z,48.81
2022-12-03T10:59:26.391Z,48.75
2022-12-03T11:01:53.044Z,48.43
2022-12-03T11:04:31.827Z,48.94
2022-12-03T11:06:58.897Z,49.43
2022-12-03T11:09:28.999Z,49.17
2022-12-03T11:11:55.835Z,49.02
2022-12-03T11:14:54.313Z,48.37
2022-12-03T11:17:41.312Z,49.72
2022-12-03T11:20:33.648Z,48.57
2022-12-03T11:23:00.204Z,48.51
2022-12-03T11:25:27.221Z,48.94
2022-12-03T11:28:12.407Z,48.81
2022-12-03T11:30:51.217Z,48.95
2022-12-03T11:33:32.761Z,49.16
2022-12-03T11:36:05.332Z,49.00
2022-12-03T11:38:37.798Z,49.25
2022-12-03T11:41:09.700Z,49.14
2022-12-03T11:44:25.352Z,49.10
2022-12-03T11:46:52.162Z,49.29
2022-12-03T11:49:31.955Z,49.24
2022-12-03T11:52:01.212Z,48.69
2022-12-03T11:54:27.773Z,48.82
2022-12-03T11:56:56.065Z,49.01
2022-12-03T11:59:22.801Z,48.46
2022-12-03T12:01:49.327Z,48.97
2022-12-03T12:04:42.888Z,48.86
2022-12-03T12:07:09.515Z,48.38
2022-12-03T12:09:55.740Z,48.56
2022-12-03T12:12:37.143Z,48.89
2022-12-03T12:15:42.342Z,48.55
2022-12-03T12:18:33.627Z,48.71
2022-12-03T12:21:37.746Z,48.57
2022-12-03T12:24:30.485Z,48.55
2022-12-03T12:26:58.993Z,49.62
2022-12-03T12:29:25.779Z,49.62
2022-12-03T12:31:59.464Z,49.21
2022-12-03T12:34:25.974Z,49.12
2022-12-03T12:36:56.990Z,49.84
2022-12-03T12:39:23.552Z,50.83
2022-12-03T12:41:50.905Z,49.65
2022-12-03T12:44:18.503Z,49.21
2022-12-03T12:46:48.477Z,49.38
2022-12-03T12:49:15.748Z,49.48
2022-12-03T12:51:47.157Z,48.98
2022-12-03T12:54:16.005Z,48.83
2022-12-03T12:56:49.790Z,48.91
2022-12-03T12:59:20.316Z,49.23
2022-12-03T13:01:50.422Z,50.02
2022-12-03T13:04:22.627Z,50.23
2022-12-03T13:06:51.972Z,50.08
2022-12-03T13:09:24.337Z,49.87
2022-12-03T13:11:56.923Z,50.27
2022-12-03T13:14:26.084Z,50.48
2022-12-03T13:16:54.899Z,49.88
2022-12-03T13:19:25.846Z,50.03
2022-12-03T13:22:10.384Z,50.34
2022-12-03T13:24:38.259Z,49.46
2022-12-03T13:27:28.525Z,49.71
2022-12-03T13:29:57.246Z,50.26
2022-12-03T13:32:30.751Z,49.91
2022-12-03T13:35:16.150Z,49.73
2022-12-03T13:37:42.769Z,49.31
2022-12-03T13:40:37.480Z,49.60
2022-12-03T13:43:05.145Z,49.67
2022-12-03T13:45:37.463Z,49.66
2022-12-03T13:48:31.307Z,49.39
2022-12-03T13:51:38.937Z,50.17
2022-12-03T13:54:14.397Z,49.93
2022-12-03T13:56:42.498Z,49.93
2022-12-03T13:59:09.118Z,49.98
2022-12-03T14:01:36.261Z,49.70
2022-12-03T14:04:03.776Z,49.31
2022-12-03T14:06:30.690Z,49.56
2022-12-03T14:08:57.286Z,49.25
2022-12-03T14:11:42.661Z,49.15
2022-12-03T14:14:09.477Z,49.17
2022-12-03T14:16:36.184Z,49.51
2022-12-03T14:19:03.006Z,49.83
2022-12-03T14:21:29.568Z,50.10
2022-12-03T14:23:56.056Z,49.85
2022-12-03T14:26:22.568Z,49.69
2022-12-03T14:28:49.069Z,49.98
2022-12-03T14:31:15.648Z,49.76
2022-12-03T14:33:42.188Z,49.97
2022-12-03T14:36:09.259Z,50.65
2022-12-03T14:38:35.768Z,50.33
2022-12-03T14:41:02.420Z,50.51
2022-12-03T14:43:28.943Z,50.05
2022-12-03T14:45:55.556Z,49.83
2022-12-03T14:48:22.193Z,49.95
2022-12-03T14:50:48.739Z,49.64
2022-12-03T14:53:15.246Z,49.65
2022-12-03T14:55:41.777Z,49.75
2022-12-03T14:58:08.319Z,50.02
2022-12-03T15:00:34.975Z,50.18
2022-12-03T15:03:01.523Z,50.28
2022-12-03T15:05:28.939Z,50.00
2022-12-03T15:07:56.061Z,49.63
2022-12-03T15:10:22.687Z,49.54
2022-12-03T15:12:49.237Z,49.41
2022-12-03T15:15:15.769Z,50.00
2022-12-03T15:17:45.528Z,49.77
2022-12-03T15:20:12.744Z,50.29
2022-12-03T15:22:39.321Z,50.35
2022-12-03T15:25:07.544Z,50.15
2022-12-03T15:27:34.137Z,50.82
2022-12-03T15:30:00.673Z,50.74
2022-12-03T15:32:27.248Z,50.06
2022-12-03T15:34:53.841Z,50.37
2022-12-03T15:37:20.399Z,50.67
2022-12-03T15:39:48.910Z,50.84
2022-12-03T15:42:15.789Z,50.68
2022-12-03T15:44:57.448Z,50.56
2022-12-03T15:47:24.058Z,50.66
2022-12-03T15:49:50.651Z,50.91
2022-12-03T15:52:17.437Z,50.63
2022-12-03T15:54:44.183Z,50.28
2022-12-03T15:57:10.717Z,50.51
2022-12-03T15:59:37.724Z,50.80
2022-12-03T16:02:04.400Z,50.71
2022-12-03T16:04:30.997Z,50.64
2022-12-03T16:06:57.528Z,50.44
2022-12-03T16:09:27.469Z,50.59
2022-12-03T16:11:54.572Z,50.38
2022-12-03T16:14:21.063Z,50.83
2022-12-03T16:16:47.650Z,50.58
2022-12-03T16:19:14.166Z,50.27
2022-12-03T16:21:40.682Z,50.09
2022-12-03T16:24:07.385Z,50.02
2022-12-03T16:26:34.047Z,50.33
2022-12-03T16:29:00.579Z,50.13
2022-12-03T16:31:27.241Z,50.56
2022-12-03T16:33:54.682Z,50.29
2022-12-03T16:36:21.201Z,50.04
2022-12-03T16:38:47.723Z,49.96
2022-12-03T16:41:14.267Z,50.37
2022-12-03T16:43:40.856Z,50.69
2022-12-03T16:46:07.827Z,50.24
2022-12-03T16:48:34.548Z,50.13
2022-12-03T16:51:01.149Z,50.54
2022-12-03T16:53:27.688Z,50.82
2022-12-03T16:55:54.204Z,50.49
2022-12-03T16:58:21.360Z,51.17
2022-12-03T17:00:48.856Z,51.08
2022-12-03T17:03:17.867Z,51.07
2022-12-03T17:05:44.713Z,50.66
2022-12-03T17:08:11.467Z,50.70
2022-12-03T17:10:38.603Z,50.41
2022-12-03T17:13:10.048Z,50.31
2022-12-03T17:15:38.056Z,51.11
2022-12-03T17:18:04.759Z,51.24
2022-12-03T17:20:31.925Z,51.50
2022-12-03T17:22:59.212Z,51.03
2022-12-03T17:25:26.527Z,51.07
2022-12-03T17:27:53.515Z,50.60
2022-12-03T17:30:20.166Z,50.79
2022-12-03T17:32:46.703Z,50.88
2022-12-03T17:35:13.232Z,51.18
2022-12-03T17:37:39.724Z,50.48
2022-12-03T17:40:08.124Z,50.95
2022-12-03T17:42:34.643Z,50.56
2022-12-03T17:45:01.237Z,50.63
2022-12-03T17:47:27.789Z,50.79
2022-12-03T17:49:54.993Z,50.85
2022-12-03T17:52:21.789Z,50.62
2022-12-03T17:57:34.977Z,50.61
2022-12-03T18:00:01.494Z,51.02
2022-12-03T18:02:28.027Z,50.69
2022-12-03T18:04:54.534Z,51.37
2022-12-03T18:07:21.087Z,51.18
2022-12-03T18:09:47.609Z,51.09
2022-12-03T18:12:14.448Z,51.38
2022-12-03T18:14:40.969Z,51.76
2022-12-03T18:17:07.575Z,51.54
2022-12-03T18:19:34.128Z,51.84
2022-12-03T18:22:00.672Z,51.88
2022-12-03T18:24:27.373Z,51.77
2022-12-03T18:26:53.885Z,52.17
2022-12-03T18:29:20.481Z,52.04
2022-12-03T18:31:47.723Z,51.69
2022-12-03T18:34:14.304Z,51.91
2022-12-03T18:36:40.830Z,52.01
2022-12-03T18:39:09.234Z,51.63
2022-12-03T18:41:36.544Z,52.85
2022-12-03T18:44:06.634Z,52.17
2022-12-03T18:49:21.232Z,51.86
2022-12-03T18:51:48.513Z,52.52
2022-12-03T18:54:15.492Z,52.35
2022-12-03T18:56:42.081Z,51.81
2022-12-03T18:59:09.014Z,53.01
2022-12-03T19:01:35.872Z,52.15
2022-12-03T19:04:02.736Z,52.20
2022-12-03T19:06:30.363Z,51.97
2022-12-03T19:08:56.905Z,52.22
2022-12-03T19:11:23.522Z,52.10
2022-12-03T19:13:50.036Z,52.39
2022-12-03T19:16:17.138Z,52.18
2022-12-03T19:18:43.838Z,51.75
2022-12-03T19:21:13.617Z,53.05
2022-12-03T19:23:40.759Z,52.01
2022-12-03T19:26:08.837Z,51.92
2022-12-03T19:28:35.678Z,52.39
2022-12-03T19:31:05.517Z,52.25
2022-12-03T19:33:33.470Z,52.17
2022-12-03T19:36:01.365Z,52.13
2022-12-03T19:38:29.061Z,52.12
2022-12-03T19:41:07.377Z,52.12
2022-12-03T19:43:36.377Z,52.37
2022-12-03T19:46:06.906Z,51.97
2022-12-03T19:48:34.859Z,52.60
2022-12-03T19:51:26.660Z,53.73
2022-12-03T19:53:48.784Z,52.53
2022-12-03T19:56:17.820Z,52.90
2022-12-03T19:58:46.145Z,51.93
2022-12-03T20:01:18.602Z,52.51
2022-12-03T20:03:47.390Z,52.40
2022-12-03T20:06:16.192Z,52.39
2022-12-03T20:08:42.951Z,52.33
2022-12-03T20:11:17.085Z,52.25
2022-12-03T20:13:44.815Z,52.40
2022-12-03T20:16:14.219Z,52.21
2022-12-03T20:18:42.482Z,51.90
2022-12-03T20:21:11.345Z,52.01
2022-12-03T20:23:38.890Z,51.83
2022-12-03T20:26:16.956Z,52.17
2022-12-03T20:28:43.959Z,52.35
2022-12-03T20:31:13.519Z,52.34
2022-12-03T20:33:42.749Z,52.26
2022-12-03T20:36:10.461Z,52.46
2022-12-03T20:38:37.416Z,51.79
2022-12-03T20:41:06.388Z,51.94
2022-12-03T20:43:33.694Z,52.76
2022-12-03T20:46:10.692Z,52.34
2022-12-03T20:48:37.707Z,51.96
2022-12-03T20:51:05.505Z,52.35
2022-12-03T20:53:32.799Z,52.12
2022-12-03T20:56:00.377Z,52.40
2022-12-03T20:58:26.971Z,52.56
2022-12-03T21:00:53.634Z,52.07
2022-12-03T21:03:20.183Z,52.58
2022-12-03T21:05:47.598Z,52.61
2022-12-03T21:08:15.171Z,52.33
2022-12-03T21:10:45.118Z,52.15
2022-12-03T21:13:16.755Z,52.24
2022-12-03T21:15:43.901Z,52.03
2022-12-03T21:18:14.011Z,51.71
2022-12-03T21:20:46.779Z,51.58
2022-12-03T21:23:14.588Z,52.22
2022-12-03T21:25:41.157Z,51.95
2022-12-03T21:28:09.055Z,52.34
2022-12-03T21:30:39.941Z,51.87
2022-12-03T21:33:06.783Z,51.97
2022-12-03T21:35:37.042Z,52.23
2022-12-03T21:38:03.698Z,52.18
2022-12-03T21:40:30.539Z,52.09
2022-12-03T21:42:57.041Z,51.82
2022-12-03T21:45:24.940Z,52.01
2022-12-03T21:47:51.565Z,51.32
2022-12-03T21:50:18.201Z,51.94
2022-12-03T21:52:44.729Z,52.00
2022-12-03T21:55:11.292Z,51.67
2022-12-03T21:57:38.014Z,52.09
2022-12-03T22:00:07.658Z,52.36
2022-12-03T22:02:39.921Z,51.96
2022-12-03T22:05:08.204Z,52.18
2022-12-03T22:07:36.122Z,51.77
2022-12-03T22:10:04.672Z,51.81
2022-12-03T22:12:31.473Z,51.80
2022-12-03T22:14:58.072Z,51.75
2022-12-03T22:17:25.320Z,52.07
2022-12-03T22:19:51.973Z,51.80
2022-12-03T22:22:19.417Z,52.04
2022-12-03T22:24:46.600Z,51.70
2022-12-03T22:27:14.294Z,51.71
2022-12-03T22:29:40.845Z,52.02
2022-12-03T22:32:07.341Z,52.20
2022-12-03T22:34:33.941Z,52.06
2022-12-03T22:37:00.508Z,52.01
2022-12-03T22:39:27.045Z,52.50
2022-12-03T22:41:53.819Z,52.33
2022-12-03T22:44:20.324Z,52.21
2022-12-03T22:46:46.948Z,52.45
2022-12-03T22:49:13.673Z,52.26
2022-12-03T22:51:40.272Z,52.77
2022-12-03T22:54:06.784Z,52.25
2022-12-03T22:56:33.558Z,52.39
2022-12-03T22:59:00.141Z,52.29
2022-12-03T23:01:47.338Z,51.95
2022-12-03T23:04:13.961Z,52.21
2022-12-03T23:06:40.595Z,52.37
2022-12-03T23:09:07.683Z,52.29
2022-12-03T23:11:34.739Z,52.23
2022-12-03T23:14:01.744Z,52.36
2022-12-03T23:16:30.361Z,52.29
2022-12-03T23:19:01.424Z,52.64
2022-12-03T23:21:30.939Z,52.21
2022-12-03T23:24:02.189Z,52.16
2022-12-03T23:26:29.203Z,51.94
2022-12-03T23:28:56.144Z,52.32
2022-12-03T23:31:24.205Z,51.73
2022-12-03T23:33:51.533Z,52.01
2022-12-03T23:36:18.591Z,51.54
2022-12-03T23:38:45.447Z,51.66
2022-12-03T23:41:15.258Z,52.49
2022-12-03T23:43:41.929Z,52.46
2022-12-03T23:46:11.462Z,52.50
2022-12-03T23:48:38.396Z,52.80
2022-12-03T23:51:10.982Z,52.05
2022-12-03T23:53:38.107Z,52.08
2022-12-03T23:56:09.439Z,52.39
2022-12-03T23:58:36.049Z,52.44
